Time;durP1;ratioP1;P1;durP2;ratioP2;P2;SDS_P1;SDS_P2;PMS_P1;PMS_P2;Temp;Humidity;BMP_temperature;BMP_pressure;BME280_temperature;BME280_humidity;BME280_pressure;Samples;Min_cycle;Max_cycle;Signal;HPM_P1;HPM_P2
2022/11/27 00:01:25;;;;;;;90.35;42.72;;;2.10;99.90;;;;;;4995102;28;20221;-80
2022/11/27 00:03:52;;;;;;;82.30;37.40;;;2.10;99.90;;;;;;4996181;28;20191;-80
2022/11/27 00:06:21;;;;;;;201.50;69.70;;;2.10;99.90;;;;;;5010387;28;20190;-80
2022/11/27 00:08:48;;;;;;;434.75;160.10;;;2.10;99.90;;;;;;4994241;28;20792;-80
2022/11/27 00:11:19;;;;;;;212.93;71.43;;;2.00;99.90;;;;;;5008305;28;20272;-80
2022/11/27 00:13:45;;;;;;;129.68;49.00;;;1.90;99.90;;;;;;5009455;28;20164;-80
2022/11/27 00:16:12;;;;;;;70.35;29.73;;;1.90;99.90;;;;;;5009326;28;20736;-80
2022/11/27 00:18:37;;;;;;;451.02;183.32;;;1.80;99.90;;;;;;5007987;28;20345;-80
2022/11/27 00:21:16;;;;;;;129.53;49.70;;;1.90;99.90;;;;;;4991524;28;20298;-80
2022/11/27 00:23:41;;;;;;;193.00;77.95;;;1.80;99.90;;;;;;5008142;28;20276;-80
2022/11/27 00:26:08;;;;;;;89.17;36.77;;;2.00;99.90;;;;;;4976821;28;20823;-78
2022/11/27 00:28:34;;;;;;;74.88;32.20;;;1.80;99.90;;;;;;5008306;28;20563;-79
2022/11/27 00:31:05;;;;;;;57.10;24.45;;;1.80;99.90;;;;;;4991955;28;20305;-79
2022/11/27 00:33:31;;;;;;;49.15;20.75;;;1.80;99.90;;;;;;5009954;28;20169;-79
2022/11/27 00:36:01;;;;;;;57.97;22.42;;;1.80;99.90;;;;;;5008493;28;20191;-79
2022/11/27 00:38:27;;;;;;;49.40;21.30;;;1.70;99.90;;;;;;5008410;28;20971;-79
2022/11/27 00:40:52;;;;;;;86.47;35.57;;;1.60;99.90;;;;;;5008237;28;20210;-78
2022/11/27 00:43:18;;;;;;;49.97;21.37;;;1.70;99.90;;;;;;4976424;28;20206;-79
2022/11/27 00:45:48;;;;;;;35.60;18.50;;;1.60;99.90;;;;;;4991876;28;20196;-79
2022/11/27 00:48:13;;;;;;;33.33;17.25;;;1.70;99.90;;;;;;5008134;28;20196;-79
2022/11/27 00:50:39;;;;;;;68.77;19.40;;;1.60;99.90;;;;;;5007769;28;20230;-79
2022/11/27 00:53:04;;;;;;;33.77;15.40;;;1.50;99.90;;;;;;4991624;28;20192;-79
2022/11/27 00:55:30;;;;;;;36.50;16.23;;;1.50;99.90;;;;;;4991363;28;20562;-79
2022/11/27 00:57:56;;;;;;;32.47;15.67;;;1.40;99.90;;;;;;5007883;28;20187;-79
2022/11/27 01:00:22;;;;;;;30.73;15.73;;;1.30;99.90;;;;;;4991618;28;20213;-79
2022/11/27 01:02:47;;;;;;;26.30;14.40;;;1.40;99.90;;;;;;5008280;28;20209;-79
2022/11/27 01:05:13;;;;;;;29.47;14.40;;;1.40;99.90;;;;;;4991627;28;20289;-79
2022/11/27 01:07:38;;;;;;;29.43;13.83;;;1.30;99.90;;;;;;4991342;28;20187;-79
2022/11/27 01:10:05;;;;;;;31.23;13.90;;;1.40;99.90;;;;;;4975367;28;20294;-79
2022/11/27 01:12:30;;;;;;;22.00;12.55;;;1.30;99.90;;;;;;4992751;28;20223;-80
2022/11/27 01:14:56;;;;;;;23.60;12.77;;;1.30;99.90;;;;;;4991633;28;20198;-80
2022/11/27 01:17:22;;;;;;;24.43;12.60;;;1.30;99.90;;;;;;4977309;28;20194;-80
2022/11/27 01:19:47;;;;;;;22.00;12.53;;;1.30;99.90;;;;;;4994954;28;20746;-80
2022/11/27 01:22:13;;;;;;;20.13;10.47;;;1.20;99.90;;;;;;4978954;28;20723;-80
2022/11/27 01:24:38;;;;;;;19.20;11.00;;;1.30;99.90;;;;;;4978489;28;20298;-79
2022/11/27 01:27:04;;;;;;;20.13;10.20;;;1.30;99.90;;;;;;5011203;28;20188;-79
2022/11/27 01:29:30;;;;;;;13.33;7.37;;;1.40;99.90;;;;;;4978414;28;20277;-79
2022/11/27 01:31:55;;;;;;;19.90;7.90;;;1.80;99.90;;;;;;4994449;28;20223;-79
2022/11/27 01:34:21;;;;;;;13.33;6.57;;;2.20;99.90;;;;;;4978871;28;20276;-80
2022/11/27 01:36:46;;;;;;;14.33;6.10;;;2.10;99.90;;;;;;4994913;28;20186;-79
2022/11/27 01:39:23;;;;;;;13.90;7.03;;;2.20;99.90;;;;;;4978194;28;20667;-79
2022/11/27 01:41:49;;;;;;;17.25;6.45;;;2.40;99.90;;;;;;4995127;28;20215;-81
2022/11/27 01:44:24;;;;;;;21.33;7.67;;;2.40;99.90;;;;;;4995776;28;20197;-81
2022/11/27 01:46:50;;;;;;;12.40;7.80;;;2.50;99.90;;;;;;5011427;28;20425;-78
2022/11/27 01:49:34;;;;;;;22.52;10.73;;;2.30;99.90;;;;;;5011912;28;20196;-79
2022/11/27 01:52:05;;;;;;;28.92;14.52;;;2.10;99.90;;;;;;4994495;28;20597;-80
2022/11/27 01:54:41;;;;;;;59.75;15.52;;;1.80;99.90;;;;;;5013694;28;20172;-78
2022/11/27 01:57:15;;;;;;;73.90;14.57;;;1.50;99.90;;;;;;5013076;28;20185;-79
2022/11/27 01:59:41;;;;;;;25.00;13.43;;;1.10;99.90;;;;;;5013801;28;20929;-80
2022/11/27 02:02:07;;;;;;;25.42;12.18;;;1.00;99.90;;;;;;4996063;28;20667;-80
2022/11/27 02:04:32;;;;;;;25.90;13.23;;;1.00;99.90;;;;;;5012347;28;20189;-80
2022/11/27 02:06:59;;;;;;;29.97;13.77;;;0.80;99.90;;;;;;5011724;28;20191;-81
2022/11/27 02:09:26;;;;;;;40.95;13.15;;;0.70;99.90;;;;;;4995420;28;20189;-80
2022/11/27 02:12:15;;;;;;;52.92;15.15;;;0.50;99.90;;;;;;4995416;28;20228;-80
2022/11/27 02:14:49;;;;;;;36.80;13.82;;;0.40;99.90;;;;;;5012047;28;20220;-79
2022/11/27 02:17:44;;;;;;;30.10;13.18;;;0.50;99.90;;;;;;5012144;28;20190;-80
2022/11/27 02:20:24;;;;;;;99.70;16.35;;;0.30;99.90;;;;;;5010068;28;20235;-80
2022/11/27 02:23:27;;;;;;;191.98;19.63;;;0.10;99.90;;;;;;5010529;28;20177;-82
2022/11/27 02:26:26;;;;;;;264.70;24.30;;;0.00;99.90;;;;;;5009792;28;20203;-80
2022/11/27 02:28:52;;;;;;;153.20;16.35;;;0.00;99.90;;;;;;5009732;28;20169;-82
2022/11/27 02:31:46;;;;;;;145.13;16.67;;;0.00;99.90;;;;;;5010594;28;20331;-80
2022/11/27 02:34:57;;;;;;;102.00;15.80;;;-0.10;99.90;;;;;;5007146;28;20197;-80
2022/11/27 02:37:38;;;;;;;118.38;15.60;;;-0.10;99.90;;;;;;4995623;28;20289;-78
2022/11/27 02:40:12;;;;;;;46.88;14.02;;;-0.10;99.90;;;;;;5010316;28;20647;-79
2022/11/27 02:42:47;;;;;;;32.20;12.45;;;-0.10;99.90;;;;;;5010592;28;20584;-79
2022/11/27 02:45:17;;;;;;;96.35;16.02;;;-0.10;99.90;;;;;;4994315;28;20178;-79
2022/11/27 02:47:46;;;;;;;73.65;14.98;;;-0.20;99.90;;;;;;4994172;28;20284;-79
2022/11/27 02:50:18;;;;;;;85.95;15.43;;;-0.10;99.90;;;;;;4994041;28;20198;-79
2022/11/27 02:52:46;;;;;;;116.72;14.93;;;-0.10;99.90;;;;;;5010153;28;20175;-79
2022/11/27 02:55:16;;;;;;;63.90;13.75;;;-0.20;99.90;;;;;;5011288;28;20192;-81
2022/11/27 02:57:44;;;;;;;158.40;16.90;;;-0.30;99.90;;;;;;5010902;28;20537;-79
2022/11/27 03:00:11;;;;;;;118.70;14.55;;;-0.30;99.90;;;;;;5010828;28;20193;-81
2022/11/27 03:02:42;;;;;;;44.50;13.90;;;-0.40;99.90;;;;;;5009427;28;20721;-79
2022/11/27 03:05:12;;;;;;;26.50;11.38;;;-0.30;99.90;;;;;;5009727;28;20182;-79
2022/11/27 03:07:44;;;;;;;81.78;13.10;;;-0.30;99.90;;;;;;5009900;28;20193;-78
2022/11/27 03:10:27;;;;;;;20.20;11.38;;;-0.30;99.90;;;;;;5009296;28;20559;-79
2022/11/27 03:12:53;;;;;;;31.80;11.63;;;-0.40;99.90;;;;;;5010735;28;20172;-79
2022/11/27 03:15:21;;;;;;;23.87;11.47;;;-0.40;99.90;;;;;;5009191;28;20553;-79
2022/11/27 03:17:50;;;;;;;47.38;14.20;;;-0.40;99.90;;;;;;5010476;28;20259;-79
2022/11/27 03:20:24;;;;;;;18.95;11.35;;;-0.50;99.90;;;;;;5010791;28;20189;-82
2022/11/27 03:22:54;;;;;;;20.02;11.85;;;-0.50;99.90;;;;;;5009191;28;20212;-79
2022/11/27 03:25:21;;;;;;;64.22;14.82;;;-0.50;99.90;;;;;;4993087;28;20185;-80
2022/11/27 03:27:52;;;;;;;29.45;12.88;;;-0.50;99.90;;;;;;5009486;28;20235;-82
2022/11/27 03:30:18;;;;;;;33.47;13.02;;;-0.50;99.90;;;;;;5010355;28;20292;-82
2022/11/27 03:32:44;;;;;;;113.03;16.60;;;-0.50;99.90;;;;;;4976944;28;20292;-78
2022/11/27 03:35:13;;;;;;;46.92;13.32;;;-0.60;99.90;;;;;;5009476;28;20186;-78
2022/11/27 03:37:39;;;;;;;64.57;12.80;;;-0.60;99.90;;;;;;5009382;28;20247;-82
2022/11/27 03:40:06;;;;;;;52.90;14.07;;;-0.60;99.90;;;;;;5008426;28;20189;-81
2022/11/27 03:42:49;;;;;;;23.77;11.07;;;-0.60;99.90;;;;;;5009167;28;20467;-79
2022/11/27 03:45:33;;;;;;;19.45;10.77;;;-0.60;99.90;;;;;;5012169;28;20165;-80
2022/11/27 03:48:17;;;;;;;13.40;9.63;;;-0.60;99.90;;;;;;5009550;28;20650;-80
2022/11/27 03:50:51;;;;;;;31.40;11.85;;;-0.60;99.90;;;;;;5009711;28;20212;-80
2022/11/27 03:53:35;;;;;;;34.30;12.25;;;-0.60;99.90;;;;;;5009388;28;20574;-79
2022/11/27 03:56:07;;;;;;;29.92;11.63;;;-0.50;99.90;;;;;;5009536;28;20188;-80
2022/11/27 03:58:36;;;;;;;19.40;10.45;;;-0.60;99.90;;;;;;5009122;28;20181;-80
2022/11/27 04:01:05;;;;;;;23.05;10.50;;;-0.70;99.90;;;;;;4993006;28;20581;-79
2022/11/27 04:03:31;;;;;;;14.38;10.35;;;-0.70;99.90;;;;;;4992429;28;20247;-80
2022/11/27 04:05:57;;;;;;;15.40;10.37;;;-0.70;99.90;;;;;;4992701;28;20188;-80
2022/11/27 04:08:24;;;;;;;16.00;10.50;;;-0.60;99.90;;;;;;4993644;28;20185;-80
2022/11/27 04:10:49;;;;;;;12.05;9.05;;;-0.60;99.90;;;;;;5010094;28;20444;-80
2022/11/27 04:13:16;;;;;;;13.40;8.77;;;-0.60;99.90;;;;;;4992631;28;20339;-80
2022/11/27 04:15:41;;;;;;;10.07;8.02;;;-0.60;99.90;;;;;;5010532;28;20214;-81
2022/11/27 04:18:07;;;;;;;12.33;7.83;;;-0.60;99.90;;;;;;4976597;28;20300;-80
2022/11/27 04:20:32;;;;;;;14.77;8.80;;;-0.60;99.90;;;;;;4992880;28;20334;-81
2022/11/27 04:22:58;;;;;;;13.90;9.03;;;-0.60;99.90;;;;;;5009185;28;20188;-81
2022/11/27 04:25:24;;;;;;;15.53;9.13;;;-0.50;99.90;;;;;;5009596;28;20181;-80
2022/11/27 04:27:50;;;;;;;10.30;8.07;;;-0.60;99.90;;;;;;5011356;28;20551;-80
2022/11/27 04:30:16;;;;;;;10.90;9.50;;;-0.50;99.90;;;;;;4992891;28;20559;-81
2022/11/27 04:32:42;;;;;;;12.07;8.70;;;-0.50;99.90;;;;;;5009340;28;20413;-78
2022/11/27 04:35:08;;;;;;;13.00;8.87;;;-0.50;99.90;;;;;;4992896;28;20197;-79
2022/11/27 04:37:34;;;;;;;13.50;8.88;;;-0.40;99.90;;;;;;4992808;28;20243;-79
2022/11/27 04:40:00;;;;;;;15.10;10.03;;;-0.40;99.90;;;;;;4992678;28;20193;-79
2022/11/27 04:42:26;;;;;;;15.40;10.60;;;-0.50;99.90;;;;;;5008888;28;20477;-79
2022/11/27 04:44:51;;;;;;;14.48;9.82;;;-0.60;99.90;;;;;;5010108;28;20181;-80
2022/11/27 04:47:17;;;;;;;16.53;10.70;;;-0.60;99.90;;;;;;5010379;28;20678;-85
2022/11/27 04:49:43;;;;;;;12.10;9.10;;;-0.60;99.90;;;;;;5009415;28;20169;-84
2022/11/27 04:52:09;;;;;;;81.40;43.03;;;-0.60;99.90;;;;;;4994669;28;20212;-78
2022/11/27 04:54:36;;;;;;;51.95;30.10;;;-0.60;99.90;;;;;;5013531;28;20173;-74
2022/11/27 04:57:02;;;;;;;20.48;12.98;;;-0.60;99.90;;;;;;5013563;28;20193;-74
2022/11/27 04:59:28;;;;;;;14.80;9.07;;;-0.70;99.90;;;;;;5013357;28;20193;-74
2022/11/27 05:01:54;;;;;;;13.00;9.20;;;-0.60;99.90;;;;;;5013226;28;20225;-73
2022/11/27 05:04:20;;;;;;;20.90;10.80;;;-0.60;99.90;;;;;;5013273;28;20234;-74
2022/11/27 05:06:45;;;;;;;15.43;9.38;;;-0.50;99.90;;;;;;5013367;28;20184;-73
2022/11/27 05:09:11;;;;;;;12.50;8.40;;;-0.60;99.90;;;;;;5013265;28;20742;-74
2022/11/27 05:11:37;;;;;;;14.60;8.90;;;-0.60;99.90;;;;;;5012968;28;20227;-74
2022/11/27 05:14:15;;;;;;;14.47;9.23;;;-0.80;99.90;;;;;;5011789;28;20323;-74
2022/11/27 05:16:46;;;;;;;14.48;9.60;;;-0.80;99.90;;;;;;5012059;28;20546;-80
2022/11/27 05:19:13;;;;;;;12.02;9.13;;;-0.90;99.90;;;;;;5012956;28;20457;-76
2022/11/27 05:21:43;;;;;;;14.70;8.90;;;-1.00;99.90;;;;;;5012498;28;20235;-75
2022/11/27 05:24:09;;;;;;;37.13;10.27;;;-1.00;99.90;;;;;;5013126;28;20205;-81
2022/11/27 05:26:36;;;;;;;31.63;9.93;;;-1.10;99.90;;;;;;4995028;28;20616;-73
2022/11/27 05:29:02;;;;;;;30.67;10.48;;;-1.20;99.90;;;;;;5012674;28;20205;-74
2022/11/27 05:31:27;;;;;;;31.00;8.30;;;-1.30;99.90;;;;;;5012551;28;20209;-73
2022/11/27 05:33:56;;;;;;;40.17;10.43;;;-1.40;99.90;;;;;;5011319;28;20431;-76
2022/11/27 05:36:22;;;;;;;28.00;8.45;;;-1.40;99.90;;;;;;5012765;28;20447;-74
2022/11/27 05:38:48;;;;;;;46.87;11.87;;;-1.40;99.90;;;;;;5011389;28;20221;-75
2022/11/27 05:41:13;;;;;;;15.07;7.10;;;-1.40;99.90;;;;;;5012413;28;20717;-74
2022/11/27 05:43:39;;;;;;;15.77;9.03;;;-1.40;99.90;;;;;;5011153;28;20181;-75
2022/11/27 05:46:06;;;;;;;16.30;8.07;;;-1.40;99.90;;;;;;5012420;28;20723;-74
2022/11/27 05:48:32;;;;;;;17.88;9.02;;;-1.40;99.90;;;;;;5012474;28;20173;-74
2022/11/27 05:50:58;;;;;;;10.98;8.65;;;-1.50;99.90;;;;;;5010946;28;20220;-74
2022/11/27 05:53:23;;;;;;;9.63;7.53;;;-1.50;99.90;;;;;;5011462;28;20185;-75
2022/11/27 05:55:49;;;;;;;9.77;7.80;;;-1.50;99.90;;;;;;5011371;28;20678;-76
2022/11/27 05:58:14;;;;;;;11.83;8.00;;;-1.40;99.90;;;;;;5011667;28;20192;-75
2022/11/27 06:00:40;;;;;;;38.23;27.20;;;-1.50;99.90;;;;;;5012261;28;20232;-75
2022/11/27 06:03:06;;;;;;;63.43;28.13;;;-1.50;99.90;;;;;;5009753;28;20181;-74
2022/11/27 06:05:31;;;;;;;82.67;14.90;;;-1.50;99.90;;;;;;5012036;28;20523;-74
2022/11/27 06:07:57;;;;;;;47.70;15.63;;;-1.60;99.90;;;;;;5010906;28;20181;-76
2022/11/27 06:10:22;;;;;;;529.27;214.77;;;-1.70;99.90;;;;;;5010568;28;20284;-75
2022/11/27 06:12:48;;;;;;;514.07;178.47;;;-1.70;99.90;;;;;;5010802;28;20223;-74
2022/11/27 06:15:14;;;;;;;202.47;44.70;;;-1.60;99.90;;;;;;5010597;28;20690;-77
2022/11/27 06:17:39;;;;;;;164.20;17.30;;;-1.70;99.90;;;;;;5010310;28;20283;-76
2022/11/27 06:20:05;;;;;;;82.97;11.90;;;-1.60;99.90;;;;;;5011391;28;20185;-75
2022/11/27 06:22:31;;;;;;;124.95;15.10;;;-1.60;99.90;;;;;;5011145;28;20236;-75
2022/11/27 06:24:57;;;;;;;72.30;10.87;;;-1.60;99.90;;;;;;5011286;28;20259;-75
2022/11/27 06:27:22;;;;;;;70.07;11.70;;;-1.60;99.90;;;;;;4977569;28;20297;-75
2022/11/27 06:29:51;;;;;;;35.87;8.30;;;-1.60;99.90;;;;;;5010008;28;20689;-76
2022/11/27 06:32:17;;;;;;;102.03;12.60;;;-1.60;99.90;;;;;;5011784;28;20212;-79
2022/11/27 06:34:42;;;;;;;22.07;8.47;;;-1.70;99.90;;;;;;4994993;28;20281;-82
2022/11/27 06:37:08;;;;;;;14.03;8.73;;;-1.70;99.90;;;;;;4995078;28;20193;-82
2022/11/27 06:39:34;;;;;;;10.80;7.90;;;-1.60;99.90;;;;;;4994858;28;20189;-82
2022/11/27 06:41:59;;;;;;;14.67;9.30;;;-1.60;99.90;;;;;;4978293;28;20275;-82
2022/11/27 06:44:25;;;;;;;12.00;8.43;;;-1.60;99.90;;;;;;4994614;28;20181;-82
2022/11/27 06:46:52;;;;;;;14.30;9.10;;;-1.60;99.90;;;;;;4995390;28;20639;-82
2022/11/27 06:49:19;;;;;;;14.13;8.65;;;-1.50;99.90;;;;;;5010976;28;20539;-82
2022/11/27 06:51:45;;;;;;;11.82;8.55;;;-1.50;99.90;;;;;;4994581;28;20239;-82
2022/11/27 06:54:10;;;;;;;10.40;7.80;;;-1.60;99.90;;;;;;5010402;28;20205;-82
2022/11/27 06:56:36;;;;;;;13.17;8.67;;;-1.50;99.90;;;;;;4977826;28;20189;-82
2022/11/27 06:59:01;;;;;;;11.60;8.40;;;-1.50;99.90;;;;;;4996820;28;20215;-82
2022/11/27 07:01:29;;;;;;;14.10;8.80;;;-1.30;99.90;;;;;;5018940;28;20307;-82
2022/11/27 07:03:56;;;;;;;11.70;7.63;;;-1.50;99.90;;;;;;4993716;28;20185;-82
2022/11/27 07:06:24;;;;;;;12.23;8.00;;;-1.50;99.90;;;;;;4993792;28;20181;-82
2022/11/27 07:08:49;;;;;;;12.35;8.10;;;-1.40;99.90;;;;;;5011917;28;20216;-82
2022/11/27 07:11:18;;;;;;;9.07;6.97;;;-1.40;99.90;;;;;;5010361;28;20244;-82
2022/11/27 07:13:44;;;;;;;10.68;7.60;;;-1.30;99.90;;;;;;5010302;28;20280;-82
2022/11/27 07:16:11;;;;;;;232.63;72.40;;;-1.30;99.90;;;;;;4993828;28;20199;-82
2022/11/27 07:18:46;;;;;;;60.22;28.58;;;-1.10;99.90;;;;;;5010069;28;20727;-81
2022/11/27 07:21:12;;;;;;;16.80;11.60;;;-1.10;99.90;;;;;;5011328;28;20220;-82
2022/11/27 07:23:38;;;;;;;13.93;11.20;;;-1.20;99.90;;;;;;4993532;28;20253;-82
2022/11/27 07:26:12;;;;;;;10.25;8.43;;;-1.20;99.90;;;;;;5009539;28;20424;-81
2022/11/27 07:28:38;;;;;;;19.70;11.55;;;-1.20;99.90;;;;;;5011162;28;20179;-81
2022/11/27 07:31:04;;;;;;;21.77;12.67;;;-1.10;99.90;;;;;;5010982;28;20213;-81
2022/11/27 07:33:30;;;;;;;15.35;9.18;;;-1.10;99.90;;;;;;4993263;28;20782;-82
2022/11/27 07:36:01;;;;;;;12.07;8.88;;;-1.00;99.90;;;;;;5009790;28;20232;-82
2022/11/27 07:38:27;;;;;;;22.70;14.05;;;-0.80;99.90;;;;;;4993255;28;20189;-82
2022/11/27 07:40:53;;;;;;;22.67;13.60;;;-0.80;99.90;;;;;;4977085;28;20592;-82
2022/11/27 07:43:19;;;;;;;37.47;19.67;;;-0.60;99.90;;;;;;5009395;28;20743;-82
2022/11/27 07:45:44;;;;;;;20.27;12.73;;;-0.50;99.90;;;;;;5009791;28;20178;-82
2022/11/27 07:48:10;;;;;;;21.03;13.37;;;-0.40;99.90;;;;;;4993422;28;20556;-82
2022/11/27 07:50:35;;;;;;;27.73;14.53;;;-0.20;99.90;;;;;;5009811;28;20224;-82
2022/11/27 07:53:01;;;;;;;17.87;11.60;;;-0.10;99.90;;;;;;4993589;28;20944;-82
2022/11/27 07:55:26;;;;;;;14.67;10.37;;;0.10;99.90;;;;;;4979978;28;20186;-81
2022/11/27 07:57:52;;;;;;;14.20;9.80;;;0.10;99.90;;;;;;4979890;28;20189;-82
2022/11/27 08:00:18;;;;;;;14.70;10.97;;;0.20;99.90;;;;;;5013549;28;20291;-82
2022/11/27 08:02:44;;;;;;;16.10;9.50;;;0.30;99.90;;;;;;4995355;28;20244;-82
2022/11/27 08:05:09;;;;;;;105.87;30.57;;;0.40;99.90;;;;;;4998986;28;20685;-83
2022/11/27 08:07:35;;;;;;;180.43;50.93;;;0.40;99.90;;;;;;5032744;28;20173;-84
2022/11/27 08:10:00;;;;;;;209.40;57.13;;;0.50;99.90;;;;;;4996925;28;20188;-83
2022/11/27 08:12:26;;;;;;;423.47;111.30;;;0.50;99.90;;;;;;5013894;28;20237;-82
2022/11/27 08:14:52;;;;;;;90.87;28.93;;;0.50;99.90;;;;;;5027136;28;20181;-83
2022/11/27 08:17:18;;;;;;;18.93;11.60;;;0.60;99.90;;;;;;5014142;28;20201;-82
2022/11/27 08:19:43;;;;;;;30.77;15.00;;;0.80;99.90;;;;;;5012850;28;20697;-82
2022/11/27 08:22:14;;;;;;;70.87;26.43;;;1.00;99.90;;;;;;5011070;28;20303;-82
2022/11/27 08:24:41;;;;;;;60.95;26.50;;;1.30;99.90;;;;;;4993510;28;20527;-82
2022/11/27 08:27:07;;;;;;;46.83;30.95;;;1.50;99.90;;;;;;4992628;28;20197;-82
2022/11/27 08:29:33;;;;;;;15.65;12.00;;;3.10;99.90;;;;;;4977253;28;20194;-83
2022/11/27 08:31:59;;;;;;;165.47;55.10;;;4.60;99.90;;;;;;4993738;28;20248;-82
2022/11/27 08:34:25;;;;;;;180.93;71.50;;;5.60;99.90;;;;;;4977960;28;20310;-84
2022/11/27 08:36:51;;;;;;;136.83;50.50;;;6.90;99.90;;;;;;5009073;28;20276;-81
2022/11/27 08:39:17;;;;;;;150.33;55.43;;;8.20;99.90;;;;;;5008741;28;20417;-80
2022/11/27 08:41:44;;;;;;;229.97;75.60;;;8.90;96.40;;;;;;5008582;28;20468;-80
2022/11/27 08:44:10;;;;;;;40.77;21.73;;;9.50;94.60;;;;;;4992746;28;20878;-81
2022/11/27 08:46:35;;;;;;;134.53;62.47;;;10.30;91.60;;;;;;5007971;28;20487;-80
2022/11/27 08:49:01;;;;;;;42.60;23.33;;;10.90;87.80;;;;;;5009542;28;20552;-80
2022/11/27 08:51:27;;;;;;;407.83;155.47;;;11.00;87.10;;;;;;5007878;28;20315;-78
2022/11/27 08:53:53;;;;;;;146.43;56.37;;;11.50;82.60;;;;;;4975918;28;20185;-80
2022/11/27 08:56:22;;;;;;;350.97;124.90;;;11.50;80.20;;;;;;5010716;28;20287;-80
2022/11/27 08:58:48;;;;;;;530.27;247.90;;;10.80;82.40;;;;;;5009058;28;20190;-78
2022/11/27 09:01:15;;;;;;;39.93;25.70;;;10.00;85.60;;;;;;5009610;28;20473;-80
2022/11/27 09:03:42;;;;;;;475.27;269.13;;;8.80;90.60;;;;;;5008829;28;20838;-81
2022/11/27 09:06:10;;;;;;;98.83;53.53;;;8.10;93.00;;;;;;4991932;28;20431;-81
2022/11/27 09:08:37;;;;;;;249.50;94.80;;;7.40;95.50;;;;;;5008518;28;20552;-79
2022/11/27 09:11:03;;;;;;;468.33;184.73;;;7.10;97.70;;;;;;5010213;28;20434;-80
2022/11/27 09:13:29;;;;;;;265.50;100.23;;;6.60;99.90;;;;;;5008506;28;20806;-78
2022/11/27 09:15:57;;;;;;;404.67;158.53;;;6.30;99.90;;;;;;5009714;28;20841;-78
2022/11/27 09:18:23;;;;;;;67.83;34.93;;;6.10;99.90;;;;;;5009726;28;20527;-82
2022/11/27 09:21:03;;;;;;;141.77;58.73;;;6.30;99.90;;;;;;4992230;28;20991;-82
2022/11/27 09:23:29;;;;;;;42.43;25.57;;;8.30;99.90;;;;;;4993708;28;20935;-82
2022/11/27 09:26:01;;;;;;;61.33;34.20;;;10.20;97.00;;;;;;5009806;28;20429;-79
2022/11/27 09:28:27;;;;;;;79.93;45.97;;;11.90;90.90;;;;;;5010042;28;20794;-79
2022/11/27 09:30:58;;;;;;;16.47;14.77;;;13.40;85.50;;;;;;5009256;28;20436;-77
2022/11/27 09:33:25;;;;;;;176.27;102.10;;;14.20;78.70;;;;;;5008424;28;20542;-79
2022/11/27 09:35:51;;;;;;;13.77;11.00;;;14.90;78.00;;;;;;5008099;28;20940;-80
2022/11/27 09:38:18;;;;;;;19.47;14.80;;;15.30;76.00;;;;;;5008518;28;20427;-80
2022/11/27 09:40:51;;;;;;;29.77;19.77;;;15.00;71.80;;;;;;4994962;28;20994;-80
2022/11/27 09:43:21;;;;;;;25.90;18.10;;;16.10;72.10;;;;;;5011223;28;20425;-80
2022/11/27 09:45:53;;;;;;;22.27;18.70;;;16.80;69.60;;;;;;5011137;28;20407;-80
2022/11/27 09:48:29;;;;;;;17.20;13.30;;;17.30;69.80;;;;;;4995110;28;20429;-79
2022/11/27 09:50:55;;;;;;;11.50;10.13;;;17.50;63.80;;;;;;5012396;28;20526;-79
2022/11/27 09:53:24;;;;;;;18.20;14.97;;;18.30;64.20;;;;;;5010988;28;20566;-79
2022/11/27 09:55:54;;;;;;;58.27;37.53;;;18.40;64.00;;;;;;5011110;28;20431;-80
2022/11/27 09:58:29;;;;;;;20.27;16.13;;;18.40;62.60;;;;;;5011530;28;20779;-81
2022/11/27 10:00:55;;;;;;;11.93;10.33;;;19.20;60.80;;;;;;5010645;28;20950;-80
2022/11/27 10:03:25;;;;;;;10.80;9.17;;;19.40;58.40;;;;;;5010127;28;20521;-80
2022/11/27 10:06:19;;;;;;;36.93;25.77;;;18.90;58.30;;;;;;5010434;28;20563;-81
2022/11/27 10:08:54;;;;;;;32.63;22.93;;;19.50;58.60;;;;;;4983812;28;20428;-78
2022/11/27 10:11:46;;;;;;;10.97;9.87;;;19.30;57.30;;;;;;5012662;28;20439;-77
2022/11/27 10:14:24;;;;;;;49.50;33.70;;;18.00;58.60;;;;;;5012623;28;20553;-76
2022/11/27 10:16:51;;;;;;;11.20;10.10;;;18.60;59.90;;;;;;5011201;28;20416;-77
2022/11/27 10:19:32;;;;;;;11.37;10.17;;;18.70;59.20;;;;;;5011346;28;20450;-76
2022/11/27 10:22:11;;;;;;;53.60;40.97;;;18.30;58.70;;;;;;5010649;28;20474;-76
2022/11/27 10:24:40;;;;;;;131.47;73.33;;;19.00;58.80;;;;;;5010924;28;20404;-76
2022/11/27 10:27:22;;;;;;;36.27;23.83;;;19.50;59.20;;;;;;5011132;28;20452;-77
2022/11/27 10:29:52;;;;;;;15.90;11.67;;;20.00;57.80;;;;;;5011577;28;20416;-78
2022/11/27 10:32:28;;;;;;;13.37;11.50;;;20.20;57.00;;;;;;5010400;28;20532;-78
2022/11/27 10:35:04;;;;;;;20.03;14.90;;;19.60;57.50;;;;;;5011467;28;20405;-78
2022/11/27 10:37:41;;;;;;;151.50;98.67;;;17.40;58.20;;;;;;5011178;28;20779;-79
2022/11/27 10:40:13;;;;;;;19.57;14.00;;;15.90;62.10;;;;;;5010055;28;20413;-79
2022/11/27 10:43:00;;;;;;;25.30;17.63;;;15.10;67.20;;;;;;5011214;28;21011;-77
2022/11/27 10:45:49;;;;;;;20.60;15.00;;;14.50;69.40;;;;;;5011396;28;20405;-78
2022/11/27 10:48:15;;;;;;;52.20;34.03;;;13.60;72.30;;;;;;5011064;28;20424;-78
2022/11/27 10:50:41;;;;;;;12.37;10.30;;;13.20;74.70;;;;;;5010522;28;20499;-77
2022/11/27 10:53:17;;;;;;;15.63;12.00;;;12.90;77.50;;;;;;5011036;28;20902;-79
2022/11/27 10:56:13;;;;;;;47.93;31.70;;;12.60;79.30;;;;;;5009155;28;20405;-79
2022/11/27 10:58:55;;;;;;;123.93;71.10;;;13.40;78.90;;;;;;5011689;28;20444;-83
2022/11/27 11:01:23;;;;;;;89.37;48.57;;;14.00;76.40;;;;;;5010362;28;20511;-83
2022/11/27 11:03:50;;;;;;;118.27;66.10;;;14.00;73.10;;;;;;4993354;28;20424;-81
2022/11/27 11:06:18;;;;;;;61.50;37.00;;;14.10;72.60;;;;;;5009747;28;20492;-81
2022/11/27 11:08:44;;;;;;;12.00;6.77;;;14.10;72.00;;;;;;5011130;28;20929;-81
2022/11/27 11:11:10;;;;;;;8.03;4.17;;;14.20;66.20;;;;;;4976929;28;20444;-82
2022/11/27 11:13:45;;;;;;;49.67;31.60;;;13.60;59.90;;;;;;5011436;28;20172;-82
2022/11/27 11:16:11;;;;;;;32.00;20.87;;;13.90;69.60;;;;;;5008892;28;20181;-81
2022/11/27 11:18:49;;;;;;;34.10;21.40;;;13.10;74.00;;;;;;5009004;28;20479;-82
2022/11/27 11:21:39;;;;;;;75.87;45.37;;;13.30;74.90;;;;;;5008564;28;20216;-83
2022/11/27 11:24:27;;;;;;;20.60;13.17;;;13.50;75.50;;;;;;5001491;28;20479;-83
2022/11/27 11:26:56;;;;;;;59.83;29.70;;;13.10;76.00;;;;;;4994704;28;20511;-80
2022/11/27 11:29:34;;;;;;;54.00;31.90;;;12.60;78.40;;;;;;5008805;28;21014;-83
2022/11/27 11:32:06;;;;;;;10.67;7.83;;;12.20;82.00;;;;;;5008620;28;20451;-81
2022/11/27 11:34:32;;;;;;;21.83;12.97;;;11.80;83.00;;;;;;5010245;28;21067;-83
2022/11/27 11:37:02;;;;;;;13.03;8.93;;;11.70;86.60;;;;;;4976610;28;20434;-80
2022/11/27 11:39:43;;;;;;;26.63;15.23;;;11.70;87.30;;;;;;5008825;28;20526;-84
2022/11/27 11:42:21;;;;;;;32.43;17.87;;;12.00;87.20;;;;;;5008375;28;21124;-79
2022/11/27 11:45:00;;;;;;;21.80;12.67;;;11.60;87.60;;;;;;5010666;28;20411;-81
2022/11/27 11:47:26;;;;;;;29.60;16.03;;;11.40;88.50;;;;;;4992743;28;20408;-79
2022/11/27 11:49:53;;;;;;;16.43;10.77;;;11.40;89.80;;;;;;4991317;28;20517;-80
2022/11/27 11:52:42;;;;;;;15.77;10.00;;;11.50;88.60;;;;;;5007571;28;20279;-83
2022/11/27 11:55:20;;;;;;;8.37;6.30;;;11.60;88.40;;;;;;5008799;28;20435;-81
2022/11/27 11:58:40;;;;;;;2.17;1.70;;;11.30;83.80;;;;;;5008885;28;20406;-83
2022/11/27 12:01:17;;;;;;;2.67;1.87;;;11.00;68.40;;;;;;4949959;28;20469;-83
2022/11/27 12:04:02;;;;;;;1.30;1.20;;;10.80;65.00;;;;;;4950610;28;20424;-83
2022/11/27 12:06:39;;;;;;;0.90;0.70;;;10.70;63.30;;;;;;4994460;28;20421;-83
2022/11/27 12:09:29;;;;;;;1.87;0.83;;;10.70;59.40;;;;;;5006890;28;20420;-81
2022/11/27 12:11:59;;;;;;;2.10;1.17;;;10.80;58.00;;;;;;5007295;28;20434;-83
2022/11/27 12:14:44;;;;;;;1.30;0.80;;;10.80;59.60;;;;;;5007352;28;20430;-83
2022/11/27 12:17:33;;;;;;;1.60;0.90;;;10.70;58.90;;;;;;5008988;28;20469;-84
2022/11/27 12:20:20;;;;;;;1.87;0.77;;;10.70;59.00;;;;;;5009842;28;20414;-82
2022/11/27 12:23:27;;;;;;;5.70;1.20;;;10.70;58.40;;;;;;4993611;28;21096;-84
2022/11/27 12:26:14;;;;;;;1.50;1.20;;;10.80;59.30;;;;;;5009741;28;20982;-83
2022/11/27 12:28:59;;;;;;;1.23;0.90;;;10.80;59.10;;;;;;5007482;28;20425;-83
2022/11/27 12:31:52;;;;;;;1.23;0.97;;;10.60;59.40;;;;;;5007311;28;20444;-83
2022/11/27 12:34:43;;;;;;;2.07;0.70;;;10.70;60.10;;;;;;5009752;28;20429;-83
2022/11/27 12:37:24;;;;;;;1.80;0.70;;;10.70;60.30;;;;;;4999692;28;20676;-83
2022/11/27 12:40:08;;;;;;;0.80;0.60;;;10.70;58.30;;;;;;5007476;28;20428;-86
2022/11/27 12:42:49;;;;;;;2.17;1.20;;;10.70;57.40;;;;;;5007600;28;20471;-83
2022/11/27 12:45:18;;;;;;;1.93;0.97;;;10.70;59.00;;;;;;5007858;28;20520;-83
2022/11/27 12:47:47;;;;;;;2.10;0.80;;;10.50;56.20;;;;;;5007690;28;20424;-82